Wanyuan, China
Current Conditions -  °F | °C
As of 12:00 PM on Friday 28 Nov 2014 (Local Time) from ZLXY Reporting Station
Haze Haze  
Wind Chill: 42°   Ceiling: Unl
Heat Index: 46°   Visibility: 3mi
Dew Point: 37°   Wind: 9mph
Humidity: 71%   Direction: 40°NE
Pressure: 30.06"   Gusts: NA
Location:  32.07°N, 108.03°E
Report Text: ZLXY 280400Z 04004MPS 010V070 5000 HZ NSC 08/03 Q1018 NOSIG
Loading
Personal Weather Stations






























Interactive Weather Map New forecast layout! Learn more

10-Day Weather Forecast

Advertisements
Track Severe Weather on mobile